Time;durP1;ratioP1;P1;durP2;ratioP2;P2;SDS_P1;SDS_P2;PMS_P1;PMS_P2;Temp;Humidity;BMP_temperature;BMP_pressure;BME280_temperature;BME280_humidity;BME280_pressure;Samples;Min_cycle;Max_cycle;Signal;HPM_P1;HPM_P2
2021/06/13 00:00:49;;;;;;;;;;;12.60;99.90;;;;;;5092818;28;19912;-72
2021/06/13 00:03:16;;;;;;;;;;;12.70;99.90;;;;;;5093167;28;20357;-72
2021/06/13 00:05:45;;;;;;;;;;;12.80;99.90;;;;;;5093369;28;20346;-71
2021/06/13 00:08:12;;;;;;;;;;;12.90;99.90;;;;;;5093091;28;20273;-71
2021/06/13 00:10:38;;;;;;;;;;;13.00;99.00;;;;;;5092992;28;19912;-72
2021/06/13 00:13:05;;;;;;;;;;;13.10;98.40;;;;;;5093007;28;20388;-71
2021/06/13 00:15:32;;;;;;;;;;;13.10;98.40;;;;;;5092850;28;19908;-72
2021/06/13 00:17:58;;;;;;;;;;;13.20;97.70;;;;;;5092388;28;19915;-72
2021/06/13 00:20:28;;;;;;;;;;;13.20;97.90;;;;;;5092211;28;19909;-72
2021/06/13 00:22:55;;;;;;;;;;;13.20;98.10;;;;;;5092994;28;20320;-72
2021/06/13 00:25:22;;;;;;;;;;;13.30;98.60;;;;;;5092563;28;19957;-71
2021/06/13 00:27:49;;;;;;;;;;;13.40;98.00;;;;;;5092900;28;19954;-71
2021/06/13 00:30:16;;;;;;;;;;;13.40;97.50;;;;;;5093025;28;19914;-70
2021/06/13 00:32:43;;;;;;;;;;;13.50;97.40;;;;;;5092376;28;19915;-70
2021/06/13 00:35:10;;;;;;;;;;;13.50;97.30;;;;;;5092961;28;20366;-71
2021/06/13 00:37:36;;;;;;;;;;;13.50;97.60;;;;;;5092411;28;20359;-71
2021/06/13 00:40:04;;;;;;;;;;;13.50;97.30;;;;;;5092563;28;19927;-72
2021/06/13 00:42:30;;;;;;;;;;;13.60;97.30;;;;;;5092498;28;20001;-72
2021/06/13 00:44:57;;;;;;;;;;;13.60;97.10;;;;;;5092664;28;19912;-71
2021/06/13 00:47:24;;;;;;;;;;;13.60;97.20;;;;;;5092206;28;19912;-70
2021/06/13 00:49:50;;;;;;;;;;;13.60;97.30;;;;;;5092589;28;19908;-70
2021/06/13 00:52:17;;;;;;;;;;;13.70;96.70;;;;;;5092885;28;20392;-71
2021/06/13 00:54:44;;;;;;;;;;;13.80;96.80;;;;;;5092629;28;19915;-71
2021/06/13 00:57:10;;;;;;;;;;;13.80;96.60;;;;;;5092656;28;19915;-72
2021/06/13 00:59:37;;;;;;;;;;;13.90;96.70;;;;;;5092466;28;19999;-72
2021/06/13 01:02:04;;;;;;;;;;;14.10;96.50;;;;;;5092104;28;19916;-71
2021/06/13 01:04:31;;;;;;;;;;;14.40;95.40;;;;;;5092574;28;19957;-72
2021/06/13 01:07:10;;;;;;;;;;;14.80;94.30;;;;;;5092632;28;19924;-72
2021/06/13 01:09:41;;;;;;;;;;;14.90;94.20;;;;;;5092389;28;19916;-72
2021/06/13 01:12:11;;;;;;;;;;;15.10;94.00;;;;;;5092480;28;19931;-72
2021/06/13 01:14:59;;;;;;;;;;;15.10;93.80;;;;;;5092631;28;19960;-71
2021/06/13 01:17:45;;;;;;;;;;;15.20;94.10;;;;;;5091917;28;19908;-72
2021/06/13 01:20:27;;;;;;;;;;;15.30;93.70;;;;;;5099479;28;19916;-71
2021/06/13 01:23:11;;;;;;;;;;;15.40;93.70;;;;;;5092772;28;20380;-72
2021/06/13 01:25:52;;;;;;;;;;;15.30;93.80;;;;;;5092215;28;19919;-67
2021/06/13 01:28:37;;;;;;;;;;;15.10;94.00;;;;;;5092376;28;20006;-68
2021/06/13 01:31:05;;;;;;;;;;;15.10;94.10;;;;;;5091957;28;19962;-68
2021/06/13 01:33:32;;;;;;;;;;;15.00;94.10;;;;;;5095764;28;19969;-68
2021/06/13 01:36:01;;;;;;;;;;;14.80;94.60;;;;;;5096066;28;19968;-69
2021/06/13 01:38:29;;;;;;;;;;;14.80;94.90;;;;;;5095809;28;20358;-69
2021/06/13 01:40:59;;;;;;;;;;;14.80;95.10;;;;;;5095670;28;19960;-65
2021/06/13 01:43:27;;;;;;;;;;;14.70;94.60;;;;;;5099283;28;19971;-67
2021/06/13 01:45:55;;;;;;;;;;;14.60;94.80;;;;;;5109627;28;19916;-72
2021/06/13 01:48:22;;;;;;;;;;;14.60;94.90;;;;;;5106204;28;19912;-64
2021/06/13 01:50:49;;;;;;;;;;;14.50;95.10;;;;;;5104325;28;19908;-70
2021/06/13 01:53:16;;;;;;;;;;;14.60;95.20;;;;;;5106164;28;19919;-63
2021/06/13 01:55:47;;;;;;;;;;;14.60;95.50;;;;;;5104299;28;19907;-64
2021/06/13 01:58:17;;;;;;;;;;;14.50;95.10;;;;;;5104601;28;19908;-65
2021/06/13 02:00:46;;;;;;;;;;;14.60;95.00;;;;;;5109134;28;19915;-70
2021/06/13 02:03:14;;;;;;;;;;;14.60;95.10;;;;;;5115770;28;20453;-74
2021/06/13 02:05:42;;;;;;;;;;;14.60;95.00;;;;;;5115649;28;19912;-77
2021/06/13 02:13:44;;;;;;;;;;;14.60;95.30;;;;;;4928536;28;19924;-73
2021/06/13 02:16:11;;;;;;;;;;;14.60;95.70;;;;;;5074742;28;19942;-72
2021/06/13 02:18:38;;;;;;;;;;;14.70;95.20;;;;;;5075433;28;19915;-73
2021/06/13 02:21:07;;;;;;;;;;;14.80;95.50;;;;;;5075148;28;19992;-75
2021/06/13 02:23:35;;;;;;;;;;;14.80;95.10;;;;;;5074848;28;20011;-76
2021/06/13 02:26:02;;;;;;;;;;;14.70;95.30;;;;;;5074820;28;19962;-77
2021/06/13 02:28:29;;;;;;;;;;;14.80;95.60;;;;;;5073596;28;19954;-76
2021/06/13 02:30:56;;;;;;;;;;;14.80;95.70;;;;;;5074205;28;20358;-75
2021/06/13 02:33:23;;;;;;;;;;;14.90;95.10;;;;;;5074894;28;19916;-75
2021/06/13 02:35:54;;;;;;;;;;;14.80;95.20;;;;;;5074714;28;20389;-72
2021/06/13 02:38:22;;;;;;;;;;;14.80;95.50;;;;;;5074774;28;20255;-71
2021/06/13 02:40:49;;;;;;;;;;;14.80;95.80;;;;;;5074869;28;19908;-76
2021/06/13 02:43:17;;;;;;;;;;;14.90;95.40;;;;;;5072406;28;19917;-75
2021/06/13 02:45:43;;;;;;;;;;;14.90;95.40;;;;;;5073749;28;19917;-68
2021/06/13 02:48:10;;;;;;;;;;;14.90;95.30;;;;;;5074580;28;19987;-76
2021/06/13 02:50:37;;;;;;;;;;;15.00;95.80;;;;;;5074544;28;20021;-74
2021/06/13 02:53:22;;;;;;;;;;;15.00;95.10;;;;;;5074449;28;20017;-73
2021/06/13 02:55:51;;;;;;;;;;;15.00;95.10;;;;;;5074223;28;19999;-70
2021/06/13 02:58:22;;;;;;;;;;;15.00;95.40;;;;;;5074131;28;19909;-71
2021/06/13 03:00:50;;;;;;;;;;;15.10;95.50;;;;;;5074003;28;19913;-71
2021/06/13 03:03:21;;;;;;;;;;;15.20;95.10;;;;;;5074326;28;20006;-70
2021/06/13 03:05:47;;;;;;;;;;;15.20;95.20;;;;;;5073961;28;20276;-71
2021/06/13 03:08:14;;;;;;;;;;;15.20;94.90;;;;;;5074017;28;19908;-73
2021/06/13 03:10:41;;;;;;;;;;;15.30;95.70;;;;;;5073698;28;19915;-70
2021/06/13 03:13:08;;;;;;;;;;;15.30;95.20;;;;;;5073711;28;20015;-68
2021/06/13 03:15:35;;;;;;;;;;;15.30;95.10;;;;;;5073720;28;19954;-71
2021/06/13 03:18:02;;;;;;;;;;;15.40;94.90;;;;;;5074013;28;19999;-67
2021/06/13 03:20:29;;;;;;;;;;;15.40;95.60;;;;;;5073773;28;19912;-67
2021/06/13 03:22:56;;;;;;;;;;;15.40;95.40;;;;;;5073732;28;20011;-70
2021/06/13 03:25:24;;;;;;;;;;;15.40;95.30;;;;;;5073675;28;20320;-66
2021/06/13 03:27:51;;;;;;;;;;;15.40;95.60;;;;;;5073355;28;19913;-66
2021/06/13 03:30:18;;;;;;;;;;;15.40;95.20;;;;;;5073718;28;19988;-68
2021/06/13 03:32:45;;;;;;;;;;;15.40;95.30;;;;;;5073687;28;20290;-66
2021/06/13 03:35:12;;;;;;;;;;;15.40;95.10;;;;;;5073804;28;20343;-68
2021/06/13 03:37:41;;;;;;;;;;;15.40;95.50;;;;;;5073296;28;19908;-67
2021/06/13 03:40:08;;;;;;;;;;;15.40;95.60;;;;;;5073489;28;20038;-66
2021/06/13 03:42:35;;;;;;;;;;;15.50;95.40;;;;;;5073425;28;20370;-67
2021/06/13 03:45:02;;;;;;;;;;;15.50;95.90;;;;;;5073497;28;20419;-67
2021/06/13 03:47:32;;;;;;;;;;;15.50;96.00;;;;;;5073418;28;19908;-68
2021/06/13 03:49:59;;;;;;;;;;;15.40;95.40;;;;;;5073515;28;19916;-73
2021/06/13 03:52:28;;;;;;;;;;;15.40;95.30;;;;;;5073344;28;19915;-70
2021/06/13 03:54:55;;;;;;;;;;;15.40;95.60;;;;;;5073303;28;19908;-67
2021/06/13 03:57:22;;;;;;;;;;;15.40;95.90;;;;;;5073235;28;19909;-70
2021/06/13 03:59:49;;;;;;;;;;;15.40;95.90;;;;;;5073141;28;19908;-66
2021/06/13 04:02:17;;;;;;;;;;;15.40;95.90;;;;;;5073407;28;19908;-66
2021/06/13 04:04:44;;;;;;;;;;;15.40;95.80;;;;;;5073195;28;19939;-68
2021/06/13 04:07:11;;;;;;;;;;;15.50;95.60;;;;;;5073112;28;19962;-66
2021/06/13 04:09:41;;;;;;;;;;;15.50;95.10;;;;;;5072873;28;19920;-69
2021/06/13 04:12:08;;;;;;;;;;;15.30;95.90;;;;;;5072997;28;20301;-67
2021/06/13 04:14:35;;;;;;;;;;;15.30;95.90;;;;;;5073094;28;19912;-67
2021/06/13 04:17:01;;;;;;;;;;;15.40;95.30;;;;;;5073123;28;19955;-67
2021/06/13 04:19:28;;;;;;;;;;;15.60;95.60;;;;;;5072966;28;20349;-67
2021/06/13 04:21:55;;;;;;;;;;;15.60;95.80;;;;;;5073165;28;19923;-66
2021/06/13 04:24:22;;;;;;;;;;;15.60;95.40;;;;;;5073104;28;19916;-68
2021/06/13 04:26:49;;;;;;;;;;;15.60;95.20;;;;;;5072804;28;19924;-67
2021/06/13 04:29:16;;;;;;;;;;;15.70;94.90;;;;;;5072906;28;19962;-70
2021/06/13 04:31:42;;;;;;;;;;;15.80;94.10;;;;;;5076976;28;19918;-66
2021/06/13 04:34:09;;;;;;;;;;;15.80;93.90;;;;;;5078331;28;20061;-67
2021/06/13 04:36:36;;;;;;;;;;;15.70;94.50;;;;;;5072074;28;20004;-66
2021/06/13 04:39:03;;;;;;;;;;;15.80;94.30;;;;;;5072415;28;19934;-66
2021/06/13 04:41:33;;;;;;;;;;;15.90;94.10;;;;;;5071928;28;19908;-66
2021/06/13 04:44:01;;;;;;;;;;;15.80;94.20;;;;;;5072327;28;19987;-67
2021/06/13 04:46:28;;;;;;;;;;;15.90;94.30;;;;;;5072054;28;19924;-66
2021/06/13 04:48:58;;;;;;;;;;;15.90;93.70;;;;;;5072033;28;19909;-69
2021/06/13 04:51:26;;;;;;;;;;;15.80;93.90;;;;;;5071998;28;19909;-68
2021/06/13 04:53:54;;;;;;;;;;;15.80;93.80;;;;;;5071775;28;19908;-66
2021/06/13 04:56:41;;;;;;;;;;;15.80;94.10;;;;;;5071914;28;19909;-67
2021/06/13 04:59:08;;;;;;;;;;;15.80;94.30;;;;;;5072146;28;19915;-65
2021/06/13 05:01:36;;;;;;;;;;;15.80;93.80;;;;;;5070586;28;19920;-65
2021/06/13 05:04:03;;;;;;;;;;;15.90;94.30;;;;;;5071801;28;19909;-67
2021/06/13 05:06:30;;;;;;;;;;;15.90;94.00;;;;;;5071295;28;19923;-66
2021/06/13 05:08:56;;;;;;;;;;;15.80;94.00;;;;;;5083903;28;20282;-66
2021/06/13 05:11:23;;;;;;;;;;;15.90;93.80;;;;;;5096516;28;19920;-66
2021/06/13 05:13:50;;;;;;;;;;;15.90;93.90;;;;;;5096279;28;20319;-66
2021/06/13 05:16:16;;;;;;;;;;;15.90;93.50;;;;;;5096373;28;19912;-67
2021/06/13 05:18:43;;;;;;;;;;;15.90;93.40;;;;;;5096537;28;20401;-65
2021/06/13 05:21:10;;;;;;;;;;;16.00;93.50;;;;;;5096461;28;19908;-67
2021/06/13 05:23:36;;;;;;;;;;;15.90;93.70;;;;;;5096128;28;19923;-70
2021/06/13 05:26:03;;;;;;;;;;;15.80;93.70;;;;;;5095982;28;19963;-67
2021/06/13 05:28:30;;;;;;;;;;;15.80;93.60;;;;;;5096286;28;19934;-71
2021/06/13 05:30:57;;;;;;;;;;;15.70;94.00;;;;;;5096359;28;19912;-66
2021/06/13 05:33:24;;;;;;;;;;;15.70;94.10;;;;;;5096274;28;19914;-66
2021/06/13 05:35:51;;;;;;;;;;;15.80;93.60;;;;;;5096025;28;20316;-66
2021/06/13 05:38:18;;;;;;;;;;;15.90;93.70;;;;;;5096035;28;19973;-65
2021/06/13 05:40:45;;;;;;;;;;;15.90;93.50;;;;;;5095979;28;20346;-68
2021/06/13 05:43:12;;;;;;;;;;;15.90;93.70;;;;;;5096006;28;20322;-69
2021/06/13 05:45:39;;;;;;;;;;;15.80;93.60;;;;;;5095632;28;19916;-68
2021/06/13 05:48:07;;;;;;;;;;;15.80;93.40;;;;;;5096039;28;19958;-67
2021/06/13 05:50:33;;;;;;;;;;;15.80;92.90;;;;;;5095963;28;19908;-67
2021/06/13 05:53:00;;;;;;;;;;;15.90;92.90;;;;;;5095876;28;19919;-71
2021/06/13 05:55:27;;;;;;;;;;;15.80;92.80;;;;;;5095766;28;19912;-66
2021/06/13 05:57:55;;;;;;;;;;;15.80;92.80;;;;;;5095673;28;20298;-70
2021/06/13 06:00:23;;;;;;;;;;;15.80;92.70;;;;;;5095671;28;19916;-68
2021/06/13 06:02:49;;;;;;;;;;;15.80;93.20;;;;;;5095748;28;20372;-66
2021/06/13 06:05:17;;;;;;;;;;;15.70;93.70;;;;;;5095560;28;19915;-68
2021/06/13 06:07:44;;;;;;;;;;;15.70;93.40;;;;;;5095423;28;19912;-69
2021/06/13 06:10:13;;;;;;;;;;;15.70;93.30;;;;;;5095552;28;20418;-70
2021/06/13 06:12:39;;;;;;;;;;;15.70;93.30;;;;;;5095518;28;19994;-67
2021/06/13 06:15:07;;;;;;;;;;;15.70;93.20;;;;;;5095624;28;19908;-67
2021/06/13 06:17:34;;;;;;;;;;;15.60;93.20;;;;;;5094717;28;19908;-69
2021/06/13 06:20:01;;;;;;;;;;;15.60;93.60;;;;;;5094812;28;19962;-70
2021/06/13 06:22:28;;;;;;;;;;;15.60;93.50;;;;;;5095172;28;20007;-70
2021/06/13 06:24:54;;;;;;;;;;;15.40;94.00;;;;;;5095674;28;19963;-67
2021/06/13 06:27:21;;;;;;;;;;;15.40;93.80;;;;;;5094905;28;19916;-67
2021/06/13 06:29:47;;;;;;;;;;;15.40;94.20;;;;;;5094913;28;20006;-68
2021/06/13 06:32:14;;;;;;;;;;;15.40;93.70;;;;;;5095269;28;19915;-68
2021/06/13 06:34:41;;;;;;;;;;;15.30;94.10;;;;;;5095022;28;19908;-67
2021/06/13 06:37:08;;;;;;;;;;;15.30;94.20;;;;;;5095046;28;19915;-71
2021/06/13 06:39:34;;;;;;;;;;;15.20;94.40;;;;;;5093423;28;19960;-70
2021/06/13 06:42:01;;;;;;;;;;;15.10;94.90;;;;;;5094776;28;20251;-69
2021/06/13 06:44:27;;;;;;;;;;;15.10;94.70;;;;;;5094873;28;20003;-71
2021/06/13 06:46:54;;;;;;;;;;;15.10;94.60;;;;;;5094848;28;19916;-68
2021/06/13 06:49:21;;;;;;;;;;;15.10;94.60;;;;;;5094896;28;20373;-68
2021/06/13 06:51:47;;;;;;;;;;;15.00;94.50;;;;;;5094436;28;20369;-66
2021/06/13 06:54:14;;;;;;;;;;;14.90;94.70;;;;;;5094695;28;19908;-70
2021/06/13 06:56:41;;;;;;;;;;;14.90;94.80;;;;;;5094593;28;19916;-68
2021/06/13 06:59:07;;;;;;;;;;;14.90;94.70;;;;;;5094521;28;19934;-67
2021/06/13 07:01:34;;;;;;;;;;;14.90;95.10;;;;;;5094440;28;19915;-70
2021/06/13 07:04:00;;;;;;;;;;;14.90;95.00;;;;;;5094581;28;20373;-71
2021/06/13 07:06:27;;;;;;;;;;;14.90;95.10;;;;;;5094160;28;19920;-66
2021/06/13 07:08:54;;;;;;;;;;;14.80;95.40;;;;;;5094205;28;19915;-71
2021/06/13 07:11:20;;;;;;;;;;;14.70;95.50;;;;;;5094080;28;19909;-67
2021/06/13 07:13:47;;;;;;;;;;;14.60;95.70;;;;;;5094065;28;19923;-68
2021/06/13 07:16:14;;;;;;;;;;;14.60;96.30;;;;;;5094303;28;20022;-69
2021/06/13 07:18:40;;;;;;;;;;;14.60;95.90;;;;;;5094193;28;20378;-66
2021/06/13 07:21:07;;;;;;;;;;;14.60;95.60;;;;;;5094184;28;19912;-68
2021/06/13 07:23:34;;;;;;;;;;;14.60;95.80;;;;;;5093919;28;19955;-69
2021/06/13 07:26:01;;;;;;;;;;;14.60;95.50;;;;;;5093851;28;19916;-67
2021/06/13 07:28:29;;;;;;;;;;;14.70;95.60;;;;;;5094181;28;19912;-68
2021/06/13 07:30:56;;;;;;;;;;;14.60;95.80;;;;;;5093772;28;19915;-69
2021/06/13 07:33:25;;;;;;;;;;;14.60;96.00;;;;;;5094043;28;20236;-68
2021/06/13 07:35:52;;;;;;;;;;;14.60;96.10;;;;;;5082686;28;19916;-73
2021/06/13 07:38:18;;;;;;;;;;;14.60;95.90;;;;;;5072593;28;19908;-71
2021/06/13 07:40:45;;;;;;;;;;;14.60;95.90;;;;;;5073289;28;20002;-66
2021/06/13 07:43:12;;;;;;;;;;;14.60;96.10;;;;;;5073424;28;19954;-69
2021/06/13 07:45:42;;;;;;;;;;;14.60;96.10;;;;;;5073186;28;20003;-68
2021/06/13 07:48:09;;;;;;;;;;;14.50;96.20;;;;;;5073223;28;19913;-69
2021/06/13 07:50:37;;;;;;;;;;;14.50;96.10;;;;;;5073477;28;19908;-68
2021/06/13 07:53:04;;;;;;;;;;;14.60;96.10;;;;;;5072101;28;20394;-66
2021/06/13 07:55:34;;;;;;;;;;;14.50;96.10;;;;;;5071934;28;20295;-66
2021/06/13 07:58:01;;;;;;;;;;;14.50;96.30;;;;;;5073207;28;19909;-67
2021/06/13 08:00:27;;;;;;;;;;;14.50;96.90;;;;;;5073201;28;19916;-66
2021/06/13 08:02:54;;;;;;;;;;;14.40;96.90;;;;;;5073460;28;20351;-67
2021/06/13 08:05:30;;;;;;;;;;;14.40;96.40;;;;;;5073611;28;19909;-66
2021/06/13 08:07:58;;;;;;;;;;;14.40;96.60;;;;;;5072651;28;19908;-65
2021/06/13 08:10:26;;;;;;;;;;;14.40;96.40;;;;;;5072794;28;19961;-66
2021/06/13 08:12:52;;;;;;;;;;;14.30;96.60;;;;;;5073115;28;19931;-70
2021/06/13 08:15:20;;;;;;;;;;;14.20;96.70;;;;;;5073022;28;19916;-72
2021/06/13 08:17:47;;;;;;;;;;;14.10;96.70;;;;;;5072776;28;20381;-72
2021/06/13 08:20:14;;;;;;;;;;;14.10;96.90;;;;;;5072845;28;19916;-71
2021/06/13 08:22:41;;;;;;;;;;;14.00;96.90;;;;;;5072941;28;19915;-67
2021/06/13 08:25:09;;;;;;;;;;;14.00;97.10;;;;;;5072715;28;19919;-68
2021/06/13 08:27:36;;;;;;;;;;;13.90;98.40;;;;;;5072921;28;19995;-70
2021/06/13 08:30:04;;;;;;;;;;;13.80;98.20;;;;;;5072686;28;19916;-68
2021/06/13 08:32:31;;;;;;;;;;;13.70;97.70;;;;;;5072743;28;20309;-71
2021/06/13 08:34:57;;;;;;;;;;;13.70;97.70;;;;;;5072944;28;20376;-72
2021/06/13 08:37:24;;;;;;;;;;;13.70;97.30;;;;;;5073033;28;19908;-72
2021/06/13 08:39:51;;;;;;;;;;;13.80;97.30;;;;;;5072108;28;20366;-66
2021/06/13 08:42:19;;;;;;;;;;;13.70;97.30;;;;;;5075123;28;19909;-70
2021/06/13 08:44:45;;;;;;;;;;;13.70;97.20;;;;;;5077074;28;19955;-69
2021/06/13 08:47:16;;;;;;;;;;;13.70;97.40;;;;;;5076976;28;20430;-71
2021/06/13 08:49:42;;;;;;;;;;;13.70;97.10;;;;;;5076508;28;19958;-66
2021/06/13 08:52:10;;;;;;;;;;;13.60;97.50;;;;;;5076659;28;19955;-68
2021/06/13 08:54:37;;;;;;;;;;;13.60;98.30;;;;;;5076264;28;19914;-70
2021/06/13 08:57:05;;;;;;;;;;;13.50;98.30;;;;;;5076984;28;20425;-67
2021/06/13 08:59:31;;;;;;;;;;;13.50;98.50;;;;;;5076355;28;20328;-68
2021/06/13 09:01:59;;;;;;;;;;;13.40;98.40;;;;;;5076660;28;19913;-67
2021/06/13 09:04:25;;;;;;;;;;;13.30;97.90;;;;;;5076614;28;20424;-68
2021/06/13 09:06:52;;;;;;;;;;;13.30;98.70;;;;;;5076225;28;20007;-67
2021/06/13 09:09:24;;;;;;;;;;;13.30;98.50;;;;;;5075651;28;19916;-68
2021/06/13 09:12:19;;;;;;;;;;;13.30;98.50;;;;;;5075909;28;19917;-67
2021/06/13 09:14:54;;;;;;;;;;;13.30;98.40;;;;;;5074506;28;19912;-67
2021/06/13 09:17:25;;;;;;;;;;;13.30;97.50;;;;;;5076603;28;19946;-68
2021/06/13 09:20:08;;;;;;;;;;;13.30;97.20;;;;;;5075854;28;19916;-67
2021/06/13 09:22:35;;;;;;;;;;;13.30;97.10;;;;;;5076253;28;19909;-67
2021/06/13 09:25:12;;;;;;;;;;;13.30;97.50;;;;;;5076173;28;19909;-68
2021/06/13 09:27:39;;;;;;;;;;;13.30;97.00;;;;;;5075797;28;19917;-70
2021/06/13 09:30:07;;;;;;;;;;;13.30;97.10;;;;;;5075932;28;19908;-67
2021/06/13 09:32:52;;;;;;;;;;;13.30;97.30;;;;;;5076067;28;19920;-68
2021/06/13 09:35:22;;;;;;;;;;;13.30;97.30;;;;;;5075928;28;19915;-68
2021/06/13 09:38:05;;;;;;;;;;;13.20;97.10;;;;;;5075820;28;19909;-68
2021/06/13 09:40:31;;;;;;;;;;;13.20;97.50;;;;;;5075635;28;19995;-67
2021/06/13 09:43:09;;;;;;;;;;;13.10;97.20;;;;;;5075798;28;20358;-67
2021/06/13 09:45:36;;;;;;;;;;;13.10;97.90;;;;;;5075539;28;19917;-67
2021/06/13 09:48:03;;;;;;;;;;;13.10;97.40;;;;;;5075802;28;19916;-69
2021/06/13 09:50:43;;;;;;;;;;;13.10;97.60;;;;;;5075386;28;19916;-67
2021/06/13 09:53:28;;;;;;;;;;;13.10;97.80;;;;;;5075381;28;20285;-68
2021/06/13 09:56:05;;;;;;;;;;;13.00;98.30;;;;;;5075693;28;19909;-67
2021/06/13 09:58:33;;;;;;;;;;;13.00;98.30;;;;;;5075546;28;20348;-67
2021/06/13 10:01:09;;;;;;;;;;;13.00;98.30;;;;;;5075204;28;19935;-67
2021/06/13 10:03:39;;;;;;;;;;;13.00;97.90;;;;;;5075328;28;20411;-68
2021/06/13 10:06:07;;;;;;;;;;;13.00;98.00;;;;;;5075379;28;20275;-69
2021/06/13 10:08:35;;;;;;;;;;;12.90;97.80;;;;;;5075367;28;19999;-67
2021/06/13 10:11:02;;;;;;;;;;;12.90;97.80;;;;;;5074976;28;19908;-67
2021/06/13 10:13:41;;;;;;;;;;;12.90;98.00;;;;;;5075123;28;19925;-67
2021/06/13 10:16:08;;;;;;;;;;;12.90;97.90;;;;;;5075097;28;20270;-71
2021/06/13 10:18:42;;;;;;;;;;;12.90;98.00;;;;;;5075205;28;19909;-69
2021/06/13 10:21:10;;;;;;;;;;;12.90;97.70;;;;;;5073577;28;20429;-68
2021/06/13 10:23:37;;;;;;;;;;;12.80;97.90;;;;;;5074919;28;19913;-67
2021/06/13 10:26:06;;;;;;;;;;;12.80;97.60;;;;;;5074760;28;19920;-67
2021/06/13 10:28:34;;;;;;;;;;;12.80;97.70;;;;;;5074955;28;20377;-67
2021/06/13 10:31:01;;;;;;;;;;;12.80;97.80;;;;;;5074865;28;19954;-68
2021/06/13 10:33:28;;;;;;;;;;;12.70;98.20;;;;;;5074950;28;19966;-67
2021/06/13 10:36:01;;;;;;;;;;;12.70;98.10;;;;;;5074775;28;19932;-67
2021/06/13 10:38:28;;;;;;;;;;;12.70;98.40;;;;;;5074851;28;19956;-69
2021/06/13 10:40:56;;;;;;;;;;;12.60;98.10;;;;;;5074419;28;19947;-69
2021/06/13 10:43:24;;;;;;;;;;;12.60;98.20;;;;;;5073857;28;19999;-72
2021/06/13 10:45:51;;;;;;;;;;;12.60;98.50;;;;;;5074407;28;19951;-67
2021/06/13 10:48:18;;;;;;;;;;;12.50;98.50;;;;;;5074600;28;20370;-70
2021/06/13 10:50:45;;;;;;;;;;;12.50;98.70;;;;;;5073305;28;20388;-69
2021/06/13 10:53:12;;;;;;;;;;;12.50;99.00;;;;;;5072939;28;19967;-67
2021/06/13 10:55:52;;;;;;;;;;;12.50;99.30;;;;;;5073980;28;19909;-68
2021/06/13 10:58:36;;;;;;;;;;;12.50;98.80;;;;;;5073863;28;19995;-70
2021/06/13 11:01:21;;;;;;;;;;;12.50;99.20;;;;;;5073815;28;19909;-69
2021/06/13 11:03:59;;;;;;;;;;;12.50;99.30;;;;;;5073772;28;19962;-70
2021/06/13 11:06:37;;;;;;;;;;;12.50;99.50;;;;;;5073548;28;20378;-68
2021/06/13 11:09:13;;;;;;;;;;;12.50;98.80;;;;;;5074009;28;20344;-69
2021/06/13 11:11:42;;;;;;;;;;;12.50;99.10;;;;;;5073466;28;19916;-68
2021/06/13 11:14:28;;;;;;;;;;;12.50;99.30;;;;;;5073546;28;19916;-71
2021/06/13 11:16:56;;;;;;;;;;;12.50;98.80;;;;;;5072839;28;19909;-71
2021/06/13 11:19:26;;;;;;;;;;;12.50;98.70;;;;;;5074042;28;19954;-71
2021/06/13 11:22:11;;;;;;;;;;;12.50;99.00;;;;;;5073465;28;19908;-70
2021/06/13 11:24:44;;;;;;;;;;;12.50;98.90;;;;;;5073754;28;20319;-68
2021/06/13 11:27:11;;;;;;;;;;;12.40;99.00;;;;;;5073734;28;19924;-68
2021/06/13 11:30:08;;;;;;;;;;;12.40;98.80;;;;;;5073483;28;19920;-67
2021/06/13 11:32:50;;;;;;;;;;;12.40;99.10;;;;;;5060983;28;19915;-70
2021/06/13 11:35:24;;;;;;;;;;;12.40;99.00;;;;;;5073757;28;19949;-68
2021/06/13 11:38:14;;;;;;;;;;;12.40;99.30;;;;;;5073429;28;19908;-68
2021/06/13 11:40:51;;;;;;;;;;;12.30;98.70;;;;;;5073372;28;19912;-69
2021/06/13 11:43:30;;;;;;;;;;;12.30;99.40;;;;;;5073002;28;19917;-68
2021/06/13 11:46:06;;;;;;;;;;;12.30;99.00;;;;;;5073524;28;20374;-68
2021/06/13 11:48:34;;;;;;;;;;;12.30;99.70;;;;;;5073439;28;19909;-67
2021/06/13 11:51:02;;;;;;;;;;;12.30;99.30;;;;;;5073365;28;19916;-70
2021/06/13 11:53:47;;;;;;;;;;;12.30;99.40;;;;;;5072467;28;20434;-69
2021/06/13 11:56:44;;;;;;;;;;;12.30;99.00;;;;;;5073264;28;20050;-67
2021/06/13 11:59:10;;;;;;;;;;;12.20;99.30;;;;;;5060660;28;19908;-67
2021/06/13 12:01:38;;;;;;;;;;;12.20;99.10;;;;;;5072870;28;19918;-68
2021/06/13 12:04:06;;;;;;;;;;;12.20;99.10;;;;;;5071967;28;19934;-67
2021/06/13 12:06:37;;;;;;;;;;;12.10;99.40;;;;;;5073104;28;20008;-68
2021/06/13 12:09:11;;;;;;;;;;;12.10;99.10;;;;;;5072646;28;19908;-67
2021/06/13 12:11:40;;;;;;;;;;;12.10;99.00;;;;;;5072799;28;19958;-67
2021/06/13 12:14:16;;;;;;;;;;;12.10;99.00;;;;;;5073049;28;19913;-70
2021/06/13 12:16:43;;;;;;;;;;;12.10;99.70;;;;;;5071534;28;19912;-68
2021/06/13 12:19:10;;;;;;;;;;;12.10;99.20;;;;;;5072643;28;19985;-67
2021/06/13 12:21:37;;;;;;;;;;;12.10;99.30;;;;;;5072210;28;19962;-69
2021/06/13 12:29:40;;;;;;;;;;;12.00;99.30;;;;;;5087143;28;19919;-69
2021/06/13 12:32:13;;;;;;;;;;;12.10;99.20;;;;;;5072957;28;20317;-68
2021/06/13 12:34:41;;;;;;;;;;;12.00;99.30;;;;;;5072805;28;20374;-68
2021/06/13 12:37:15;;;;;;;;;;;12.10;99.80;;;;;;5071871;28;19912;-67
2021/06/13 12:39:41;;;;;;;;;;;12.10;98.90;;;;;;5072756;28;19913;-67
2021/06/13 12:42:12;;;;;;;;;;;12.10;98.90;;;;;;5072842;28;19919;-70
2021/06/13 12:44:39;;;;;;;;;;;12.10;98.80;;;;;;5072992;28;19909;-71
2021/06/13 12:47:07;;;;;;;;;;;12.00;98.90;;;;;;5072752;28;20259;-72
2021/06/13 12:49:38;;;;;;;;;;;12.00;99.00;;;;;;5073185;28;20113;-68
2021/06/13 12:52:15;;;;;;;;;;;12.00;99.10;;;;;;5072351;28;20359;-67
2021/06/13 12:54:42;;;;;;;;;;;12.00;99.00;;;;;;5072765;28;20381;-67
2021/06/13 12:57:09;;;;;;;;;;;11.90;99.20;;;;;;5072799;28;20350;-68
2021/06/13 12:59:37;;;;;;;;;;;11.90;99.40;;;;;;5072507;28;20025;-68
2021/06/13 13:02:06;;;;;;;;;;;11.90;99.40;;;;;;5072335;28;19956;-68
2021/06/13 13:04:52;;;;;;;;;;;11.90;99.80;;;;;;5072783;28;19963;-67
2021/06/13 13:07:30;;;;;;;;;;;11.90;99.70;;;;;;5072194;28;19917;-67
2021/06/13 13:10:07;;;;;;;;;;;11.80;99.80;;;;;;5072644;28;19908;-69
2021/06/13 13:12:34;;;;;;;;;;;11.80;99.80;;;;;;5072295;28;20352;-70
2021/06/13 13:15:21;;;;;;;;;;;11.80;99.50;;;;;;5072641;28;20007;-68
2021/06/13 13:17:47;;;;;;;;;;;11.80;99.70;;;;;;5072317;28;19966;-68
2021/06/13 13:20:20;;;;;;;;;;;11.80;99.80;;;;;;5072445;28;19909;-69
2021/06/13 13:22:48;;;;;;;;;;;11.80;99.60;;;;;;5072065;28;19908;-68
2021/06/13 13:25:15;;;;;;;;;;;11.80;99.70;;;;;;5072504;28;19908;-67
2021/06/13 13:27:42;;;;;;;;;;;11.70;99.80;;;;;;5073250;28;20355;-71
2021/06/13 13:30:27;;;;;;;;;;;11.70;99.90;;;;;;5076176;28;19908;-68
2021/06/13 13:32:55;;;;;;;;;;;11.80;99.90;;;;;;5075591;28;20431;-71
2021/06/13 13:35:28;;;;;;;;;;;11.70;99.90;;;;;;5075792;28;19908;-72
2021/06/13 13:37:55;;;;;;;;;;;11.70;99.90;;;;;;5075319;28;20270;-68
2021/06/13 13:40:22;;;;;;;;;;;11.60;99.90;;;;;;5075934;28;19943;-72
2021/06/13 13:43:02;;;;;;;;;;;11.60;99.90;;;;;;5075965;28;20270;-72
2021/06/13 13:45:29;;;;;;;;;;;11.60;99.90;;;;;;5075765;28;19908;-72
2021/06/13 13:48:10;;;;;;;;;;;11.60;99.90;;;;;;5075689;28;19962;-69
2021/06/13 13:50:38;;;;;;;;;;;11.60;99.90;;;;;;5075847;28;20314;-66
2021/06/13 13:53:15;;;;;;;;;;;11.60;99.90;;;;;;5075605;28;20308;-66
2021/06/13 13:56:08;;;;;;;;;;;11.60;99.90;;;;;;5075549;28;20362;-67
2021/06/13 13:58:34;;;;;;;;;;;11.60;99.90;;;;;;5072762;28;19956;-67
2021/06/13 14:01:01;;;;;;;;;;;11.60;99.90;;;;;;5075331;28;20385;-71
2021/06/13 14:03:31;;;;;;;;;;;11.50;99.90;;;;;;5075622;28;19909;-68
2021/06/13 14:06:00;;;;;;;;;;;11.50;99.90;;;;;;5075402;28;19951;-69
2021/06/13 14:08:27;;;;;;;;;;;11.60;99.90;;;;;;5075292;28;19908;-68
2021/06/13 14:10:54;;;;;;;;;;;11.50;99.90;;;;;;5072409;28;20007;-67
2021/06/13 14:13:21;;;;;;;;;;;11.60;99.90;;;;;;5074034;28;20289;-71
2021/06/13 14:15:49;;;;;;;;;;;11.50;99.90;;;;;;5075030;28;20362;-67
2021/06/13 14:18:16;;;;;;;;;;;11.50;99.90;;;;;;5075347;28;19908;-71
2021/06/13 14:20:42;;;;;;;;;;;11.50;99.90;;;;;;5073983;28;19909;-68
2021/06/13 14:23:10;;;;;;;;;;;11.40;99.90;;;;;;5075173;28;19915;-67
2021/06/13 14:25:37;;;;;;;;;;;11.40;99.90;;;;;;5074826;28;19909;-67
2021/06/13 14:28:06;;;;;;;;;;;11.40;99.90;;;;;;5075170;28;19908;-70
2021/06/13 14:30:34;;;;;;;;;;;11.40;99.90;;;;;;5074943;28;20390;-72
2021/06/13 14:33:00;;;;;;;;;;;11.40;99.90;;;;;;5075120;28;19913;-68
2021/06/13 14:35:27;;;;;;;;;;;11.40;99.90;;;;;;5075103;28;20421;-70
2021/06/13 14:37:54;;;;;;;;;;;11.40;99.90;;;;;;5074568;28;19908;-68
2021/06/13 14:40:20;;;;;;;;;;;11.40;99.90;;;;;;5073901;28;19913;-72